sensor_id;sensor_type;location;lat;lon;timestamp;temperature;humidity
71942;DHT22;59997;53.300;-6.260;2023-06-14T00:01:47;13.16;85.29
71942;DHT22;59997;53.300;-6.260;2023-06-14T00:04:14;13.12;85.29
71942;DHT22;59997;53.300;-6.260;2023-06-14T00:06:42;13.09;85.38
71942;DHT22;59997;53.300;-6.260;2023-06-14T00:09:10;13.12;85.51
71942;DHT22;59997;53.300;-6.260;2023-06-14T00:11:38;13.12;85.68
71942;DHT22;59997;53.300;-6.260;2023-06-14T00:14:04;13.13;85.62
71942;DHT22;59997;53.300;-6.260;2023-06-14T00:16:29;13.16;85.96
71942;DHT22;59997;53.300;-6.260;2023-06-14T00:18:55;13.22;86.03
71942;DHT22;59997;53.300;-6.260;2023-06-14T00:21:21;13.16;86.02
71942;DHT22;59997;53.300;-6.260;2023-06-14T00:23:46;13.06;86.15
71942;DHT22;59997;53.300;-6.260;2023-06-14T00:26:12;12.98;86.18
71942;DHT22;59997;53.300;-6.260;2023-06-14T00:28:37;12.91;86.36
71942;DHT22;59997;53.300;-6.260;2023-06-14T00:31:03;12.89;86.50
71942;DHT22;59997;53.300;-6.260;2023-06-14T00:33:29;13.03;87.05
71942;DHT22;59997;53.300;-6.260;2023-06-14T00:35:54;13.13;87.09
71942;DHT22;59997;53.300;-6.260;2023-06-14T00:38:20;13.05;87.19
71942;DHT22;59997;53.300;-6.260;2023-06-14T00:40:46;13.10;87.38
71942;DHT22;59997;53.300;-6.260;2023-06-14T00:43:11;13.17;87.47
71942;DHT22;59997;53.300;-6.260;2023-06-14T00:45:37;13.23;87.66
71942;DHT22;59997;53.300;-6.260;2023-06-14T00:48:03;13.19;87.61
71942;DHT22;59997;53.300;-6.260;2023-06-14T00:50:31;13.20;87.77
71942;DHT22;59997;53.300;-6.260;2023-06-14T00:52:59;13.26;87.98
71942;DHT22;59997;53.300;-6.260;2023-06-14T00:55:25;13.24;87.92
71942;DHT22;59997;53.300;-6.260;2023-06-14T00:57:51;13.17;87.91
71942;DHT22;59997;53.300;-6.260;2023-06-14T01:00:16;13.10;87.96
71942;DHT22;59997;53.300;-6.260;2023-06-14T01:02:42;13.05;88.04
71942;DHT22;59997;53.300;-6.260;2023-06-14T01:05:08;13.03;88.25
71942;DHT22;59997;53.300;-6.260;2023-06-14T01:10:33;13.12;88.38
71942;DHT22;59997;53.300;-6.260;2023-06-14T01:15:51;13.27;88.76
71942;DHT22;59997;53.300;-6.260;2023-06-14T01:18:17;13.40;88.90
71942;DHT22;59997;53.300;-6.260;2023-06-14T01:20:47;13.46;88.90
71942;DHT22;59997;53.300;-6.260;2023-06-14T01:23:20;13.54;88.84
71942;DHT22;59997;53.300;-6.260;2023-06-14T01:25:46;13.61;88.83
71942;DHT22;59997;53.300;-6.260;2023-06-14T01:28:13;13.64;88.78
71942;DHT22;59997;53.300;-6.260;2023-06-14T01:30:41;13.58;88.74
71942;DHT22;59997;53.300;-6.260;2023-06-14T01:33:12;13.50;88.75
71942;DHT22;59997;53.300;-6.260;2023-06-14T01:35:38;13.40;88.79
71942;DHT22;59997;53.300;-6.260;2023-06-14T01:38:05;13.32;88.82
71942;DHT22;59997;53.300;-6.260;2023-06-14T01:40:33;13.27;88.93
71942;DHT22;59997;53.300;-6.260;2023-06-14T01:42:59;13.24;88.99
71942;DHT22;59997;53.300;-6.260;2023-06-14T01:45:26;13.32;89.15
71942;DHT22;59997;53.300;-6.260;2023-06-14T01:47:52;13.41;89.25
71942;DHT22;59997;53.300;-6.260;2023-06-14T01:50:20;13.53;89.20
71942;DHT22;59997;53.300;-6.260;2023-06-14T01:52:46;13.65;89.19
71942;DHT22;59997;53.300;-6.260;2023-06-14T01:55:11;13.81;88.98
71942;DHT22;59997;53.300;-6.260;2023-06-14T01:57:37;13.96;88.75
71942;DHT22;59997;53.300;-6.260;2023-06-14T02:00:04;14.12;88.54
71942;DHT22;59997;53.300;-6.260;2023-06-14T02:02:33;14.30;88.06
71942;DHT22;59997;53.300;-6.260;2023-06-14T02:04:59;14.47;87.59
71942;DHT22;59997;53.300;-6.260;2023-06-14T02:07:24;14.58;87.23
71942;DHT22;59997;53.300;-6.260;2023-06-14T02:09:49;14.71;86.62
71942;DHT22;59997;53.300;-6.260;2023-06-14T02:12:15;14.79;86.25
71942;DHT22;59997;53.300;-6.260;2023-06-14T02:14:41;14.85;85.44
71942;DHT22;59997;53.300;-6.260;2023-06-14T02:17:07;14.97;84.44
71942;DHT22;59997;53.300;-6.260;2023-06-14T02:19:33;15.11;83.26
71942;DHT22;59997;53.300;-6.260;2023-06-14T02:21:58;15.27;81.72
71942;DHT22;59997;53.300;-6.260;2023-06-14T02:24:24;15.44;80.49
71942;DHT22;59997;53.300;-6.260;2023-06-14T02:26:49;15.49;79.76
71942;DHT22;59997;53.300;-6.260;2023-06-14T02:29:15;15.62;79.34
71942;DHT22;59997;53.300;-6.260;2023-06-14T02:31:41;15.66;79.07
71942;DHT22;59997;53.300;-6.260;2023-06-14T02:34:07;15.62;78.65
71942;DHT22;59997;53.300;-6.260;2023-06-14T02:36:35;15.58;78.94
71942;DHT22;59997;53.300;-6.260;2023-06-14T02:39:07;15.44;79.49
71942;DHT22;59997;53.300;-6.260;2023-06-14T02:41:34;15.41;78.93
71942;DHT22;59997;53.300;-6.260;2023-06-14T02:44:00;15.49;78.81
71942;DHT22;59997;53.300;-6.260;2023-06-14T02:46:25;15.51;78.45
71942;DHT22;59997;53.300;-6.260;2023-06-14T02:48:51;15.44;78.71
71942;DHT22;59997;53.300;-6.260;2023-06-14T02:51:16;15.44;78.77
71942;DHT22;59997;53.300;-6.260;2023-06-14T02:53:42;15.48;78.72
71942;DHT22;59997;53.300;-6.260;2023-06-14T02:56:09;15.54;78.26
71942;DHT22;59997;53.300;-6.260;2023-06-14T02:58:36;15.51;78.19
71942;DHT22;59997;53.300;-6.260;2023-06-14T03:01:02;15.57;77.91
71942;DHT22;59997;53.300;-6.260;2023-06-14T03:03:29;15.61;77.72
71942;DHT22;59997;53.300;-6.260;2023-06-14T03:05:55;15.67;77.61
71942;DHT22;59997;53.300;-6.260;2023-06-14T03:08:21;15.54;78.15
71942;DHT22;59997;53.300;-6.260;2023-06-14T03:10:52;15.51;78.45
71942;DHT22;59997;53.300;-6.260;2023-06-14T03:13:18;15.54;78.59
71942;DHT22;59997;53.300;-6.260;2023-06-14T03:15:47;15.63;78.56
71942;DHT22;59997;53.300;-6.260;2023-06-14T03:18:16;15.62;78.54
71942;DHT22;59997;53.300;-6.260;2023-06-14T03:20:41;15.62;78.60
71942;DHT22;59997;53.300;-6.260;2023-06-14T03:23:08;15.66;78.25
71942;DHT22;59997;53.300;-6.260;2023-06-14T03:25:33;15.69;78.43
71942;DHT22;59997;53.300;-6.260;2023-06-14T03:28:01;15.78;77.40
71942;DHT22;59997;53.300;-6.260;2023-06-14T03:30:27;15.81;77.73
71942;DHT22;59997;53.300;-6.260;2023-06-14T03:32:53;15.81;78.06
71942;DHT22;59997;53.300;-6.260;2023-06-14T03:35:21;15.85;77.33
71942;DHT22;59997;53.300;-6.260;2023-06-14T03:37:47;15.94;76.66
71942;DHT22;59997;53.300;-6.260;2023-06-14T03:40:15;16.20;74.97
71942;DHT22;59997;53.300;-6.260;2023-06-14T03:42:41;16.31;74.95
71942;DHT22;59997;53.300;-6.260;2023-06-14T03:45:07;16.34;73.68
71942;DHT22;59997;53.300;-6.260;2023-06-14T03:47:33;16.38;73.13
71942;DHT22;59997;53.300;-6.260;2023-06-14T03:49:59;16.41;72.70
71942;DHT22;59997;53.300;-6.260;2023-06-14T03:52:26;16.41;73.41
71942;DHT22;59997;53.300;-6.260;2023-06-14T03:54:52;16.35;72.68
71942;DHT22;59997;53.300;-6.260;2023-06-14T03:57:18;16.42;70.90
71942;DHT22;59997;53.300;-6.260;2023-06-14T03:59:43;16.52;69.84
71942;DHT22;59997;53.300;-6.260;2023-06-14T04:02:09;16.60;69.29
71942;DHT22;59997;53.300;-6.260;2023-06-14T04:04:35;16.73;68.43
71942;DHT22;59997;53.300;-6.260;2023-06-14T04:07:01;16.68;69.01
71942;DHT22;59997;53.300;-6.260;2023-06-14T04:09:29;16.63;68.43
71942;DHT22;59997;53.300;-6.260;2023-06-14T04:11:55;16.68;67.12
71942;DHT22;59997;53.300;-6.260;2023-06-14T04:14:21;16.59;68.65
71942;DHT22;59997;53.300;-6.260;2023-06-14T04:16:48;16.55;68.16
71942;DHT22;59997;53.300;-6.260;2023-06-14T04:19:15;16.52;69.00
71942;DHT22;59997;53.300;-6.260;2023-06-14T04:21:41;16.40;70.31
71942;DHT22;59997;53.300;-6.260;2023-06-14T04:24:07;16.35;69.26
71942;DHT22;59997;53.300;-6.260;2023-06-14T04:26:42;16.28;70.74
71942;DHT22;59997;53.300;-6.260;2023-06-14T04:29:10;16.11;71.90
71942;DHT22;59997;53.300;-6.260;2023-06-14T04:31:43;15.97;72.83
71942;DHT22;59997;53.300;-6.260;2023-06-14T04:34:09;15.81;74.27
71942;DHT22;59997;53.300;-6.260;2023-06-14T04:36:41;15.58;74.57
71942;DHT22;59997;53.300;-6.260;2023-06-14T04:39:18;15.41;75.05
71942;DHT22;59997;53.300;-6.260;2023-06-14T04:41:44;15.41;74.76
71942;DHT22;59997;53.300;-6.260;2023-06-14T04:44:10;15.47;74.15
71942;DHT22;59997;53.300;-6.260;2023-06-14T04:46:36;15.45;74.32
71942;DHT22;59997;53.300;-6.260;2023-06-14T04:49:17;15.44;73.73
71942;DHT22;59997;53.300;-6.260;2023-06-14T04:51:44;15.62;73.07
71942;DHT22;59997;53.300;-6.260;2023-06-14T04:54:10;15.79;71.08
71942;DHT22;59997;53.300;-6.260;2023-06-14T04:56:39;15.94;70.07
71942;DHT22;59997;53.300;-6.260;2023-06-14T04:59:06;16.03;70.56
71942;DHT22;59997;53.300;-6.260;2023-06-14T05:01:32;16.00;71.06
71942;DHT22;59997;53.300;-6.260;2023-06-14T05:03:58;15.96;70.86
71942;DHT22;59997;53.300;-6.260;2023-06-14T05:06:24;16.07;70.44
71942;DHT22;59997;53.300;-6.260;2023-06-14T05:08:50;16.10;71.32
71942;DHT22;59997;53.300;-6.260;2023-06-14T05:11:16;16.10;71.22
71942;DHT22;59997;53.300;-6.260;2023-06-14T05:13:42;16.18;69.32
71942;DHT22;59997;53.300;-6.260;2023-06-14T05:16:10;16.29;69.76
71942;DHT22;59997;53.300;-6.260;2023-06-14T05:18:36;16.44;69.68
71942;DHT22;59997;53.300;-6.260;2023-06-14T05:21:03;16.51;68.35
71942;DHT22;59997;53.300;-6.260;2023-06-14T05:23:29;16.58;69.31
71942;DHT22;59997;53.300;-6.260;2023-06-14T05:25:55;16.65;70.31
71942;DHT22;59997;53.300;-6.260;2023-06-14T05:28:22;16.75;69.02
71942;DHT22;59997;53.300;-6.260;2023-06-14T05:30:47;16.95;68.79
71942;DHT22;59997;53.300;-6.260;2023-06-14T05:33:13;17.11;69.02
71942;DHT22;59997;53.300;-6.260;2023-06-14T05:35:38;17.38;68.43
71942;DHT22;59997;53.300;-6.260;2023-06-14T05:38:04;17.53;67.88
71942;DHT22;59997;53.300;-6.260;2023-06-14T05:40:29;17.70;67.39
71942;DHT22;59997;53.300;-6.260;2023-06-14T05:42:55;17.96;65.72
71942;DHT22;59997;53.300;-6.260;2023-06-14T05:45:20;18.15;65.47
71942;DHT22;59997;53.300;-6.260;2023-06-14T05:47:46;18.35;64.89
71942;DHT22;59997;53.300;-6.260;2023-06-14T05:50:11;18.49;65.24
71942;DHT22;59997;53.300;-6.260;2023-06-14T05:52:37;18.68;64.11
71942;DHT22;59997;53.300;-6.260;2023-06-14T05:55:03;18.85;64.80
71942;DHT22;59997;53.300;-6.260;2023-06-14T05:57:29;18.85;64.99
71942;DHT22;59997;53.300;-6.260;2023-06-14T05:59:55;18.84;66.67
71942;DHT22;59997;53.300;-6.260;2023-06-14T06:02:20;18.94;63.98
71942;DHT22;59997;53.300;-6.260;2023-06-14T06:04:46;19.00;63.96
71942;DHT22;59997;53.300;-6.260;2023-06-14T06:07:11;19.09;64.94
71942;DHT22;59997;53.300;-6.260;2023-06-14T06:09:37;19.14;62.92
71942;DHT22;59997;53.300;-6.260;2023-06-14T06:12:02;19.27;64.68
71942;DHT22;59997;53.300;-6.260;2023-06-14T06:14:28;19.36;61.21
71942;DHT22;59997;53.300;-6.260;2023-06-14T06:16:54;19.43;62.01
71942;DHT22;59997;53.300;-6.260;2023-06-14T06:19:20;19.36;63.42
71942;DHT22;59997;53.300;-6.260;2023-06-14T06:21:45;19.37;61.23
71942;DHT22;59997;53.300;-6.260;2023-06-14T06:24:11;19.33;62.64
71942;DHT22;59997;53.300;-6.260;2023-06-14T06:26:36;19.42;63.76
71942;DHT22;59997;53.300;-6.260;2023-06-14T06:29:02;19.63;60.15
71942;DHT22;59997;53.300;-6.260;2023-06-14T06:31:28;19.87;59.16
71942;DHT22;59997;53.300;-6.260;2023-06-14T06:33:54;20.09;58.36
71942;DHT22;59997;53.300;-6.260;2023-06-14T06:36:20;20.54;56.91
71942;DHT22;59997;53.300;-6.260;2023-06-14T06:38:47;21.23;55.21
71942;DHT22;59997;53.300;-6.260;2023-06-14T06:41:12;21.74;57.12
71942;DHT22;59997;53.300;-6.260;2023-06-14T06:43:38;21.69;54.04
71942;DHT22;59997;53.300;-6.260;2023-06-14T06:46:03;21.68;56.57
71942;DHT22;59997;53.300;-6.260;2023-06-14T06:48:29;22.14;55.66
71942;DHT22;59997;53.300;-6.260;2023-06-14T06:50:54;22.92;50.05
71942;DHT22;59997;53.300;-6.260;2023-06-14T06:53:20;23.58;48.52
71942;DHT22;59997;53.300;-6.260;2023-06-14T06:55:45;23.96;51.83
71942;DHT22;59997;53.300;-6.260;2023-06-14T06:58:12;24.25;46.05
71942;DHT22;59997;53.300;-6.260;2023-06-14T07:00:37;24.45;44.71
71942;DHT22;59997;53.300;-6.260;2023-06-14T07:03:03;24.80;44.85
71942;DHT22;59997;53.300;-6.260;2023-06-14T07:05:29;24.89;45.97
71942;DHT22;59997;53.300;-6.260;2023-06-14T07:07:55;25.00;46.76
71942;DHT22;59997;53.300;-6.260;2023-06-14T07:10:20;25.02;44.83
71942;DHT22;59997;53.300;-6.260;2023-06-14T07:12:46;25.32;46.18
71942;DHT22;59997;53.300;-6.260;2023-06-14T07:15:11;25.08;45.62
71942;DHT22;59997;53.300;-6.260;2023-06-14T07:17:37;25.52;45.92
71942;DHT22;59997;53.300;-6.260;2023-06-14T07:20:03;25.63;45.77
71942;DHT22;59997;53.300;-6.260;2023-06-14T07:22:40;25.45;46.14
71942;DHT22;59997;53.300;-6.260;2023-06-14T07:25:12;25.15;47.87
71942;DHT22;59997;53.300;-6.260;2023-06-14T07:27:41;24.89;45.28
71942;DHT22;59997;53.300;-6.260;2023-06-14T07:30:08;25.07;46.55
71942;DHT22;59997;53.300;-6.260;2023-06-14T07:32:33;24.49;46.82
71942;DHT22;59997;53.300;-6.260;2023-06-14T07:34:59;23.73;47.54
71942;DHT22;59997;53.300;-6.260;2023-06-14T07:37:24;23.19;49.12
71942;DHT22;59997;53.300;-6.260;2023-06-14T07:39:50;22.85;51.02
71942;DHT22;59997;53.300;-6.260;2023-06-14T07:42:16;22.76;48.98
71942;DHT22;59997;53.300;-6.260;2023-06-14T07:44:41;22.86;47.32
71942;DHT22;59997;53.300;-6.260;2023-06-14T07:47:07;23.17;48.18
71942;DHT22;59997;53.300;-6.260;2023-06-14T07:49:33;22.89;49.00
71942;DHT22;59997;53.300;-6.260;2023-06-14T07:51:59;22.48;43.68
71942;DHT22;59997;53.300;-6.260;2023-06-14T07:54:24;22.16;50.53
71942;DHT22;59997;53.300;-6.260;2023-06-14T07:56:52;22.09;48.07
71942;DHT22;59997;53.300;-6.260;2023-06-14T07:59:17;21.89;49.22
71942;DHT22;59997;53.300;-6.260;2023-06-14T08:01:43;21.99;49.10
71942;DHT22;59997;53.300;-6.260;2023-06-14T08:04:15;22.13;50.09
71942;DHT22;59997;53.300;-6.260;2023-06-14T08:06:41;22.32;51.28
71942;DHT22;59997;53.300;-6.260;2023-06-14T08:09:10;22.18;48.82
71942;DHT22;59997;53.300;-6.260;2023-06-14T08:11:36;22.27;52.25
71942;DHT22;59997;53.300;-6.260;2023-06-14T08:14:02;22.55;48.28
71942;DHT22;59997;53.300;-6.260;2023-06-14T08:16:27;22.62;50.73
71942;DHT22;59997;53.300;-6.260;2023-06-14T08:18:52;22.59;50.21
71942;DHT22;59997;53.300;-6.260;2023-06-14T08:21:18;22.44;49.11
71942;DHT22;59997;53.300;-6.260;2023-06-14T08:23:44;22.51;51.26
71942;DHT22;59997;53.300;-6.260;2023-06-14T08:26:10;22.68;55.37
71942;DHT22;59997;53.300;-6.260;2023-06-14T08:28:36;22.85;49.12
71942;DHT22;59997;53.300;-6.260;2023-06-14T08:31:01;23.21;51.45
71942;DHT22;59997;53.300;-6.260;2023-06-14T08:33:27;23.36;49.46
71942;DHT22;59997;53.300;-6.260;2023-06-14T08:35:52;23.16;47.94
71942;DHT22;59997;53.300;-6.260;2023-06-14T08:38:18;22.78;50.75
71942;DHT22;59997;53.300;-6.260;2023-06-14T08:40:45;22.79;52.00
71942;DHT22;59997;53.300;-6.260;2023-06-14T08:43:13;22.82;48.07
71942;DHT22;59997;53.300;-6.260;2023-06-14T08:45:38;22.95;48.26
71942;DHT22;59997;53.300;-6.260;2023-06-14T08:48:05;23.38;46.79
71942;DHT22;59997;53.300;-6.260;2023-06-14T08:50:32;23.83;47.66
71942;DHT22;59997;53.300;-6.260;2023-06-14T08:53:00;23.93;49.07
71942;DHT22;59997;53.300;-6.260;2023-06-14T08:55:29;23.86;45.99
71942;DHT22;59997;53.300;-6.260;2023-06-14T08:57:56;23.80;42.42
71942;DHT22;59997;53.300;-6.260;2023-06-14T09:00:26;23.92;44.92
71942;DHT22;59997;53.300;-6.260;2023-06-14T09:02:52;24.41;43.71
71942;DHT22;59997;53.300;-6.260;2023-06-14T09:05:23;24.90;45.39
71942;DHT22;59997;53.300;-6.260;2023-06-14T09:07:49;25.25;45.10
71942;DHT22;59997;53.300;-6.260;2023-06-14T09:10:16;25.07;40.51
71942;DHT22;59997;53.300;-6.260;2023-06-14T09:12:42;25.35;42.95
71942;DHT22;59997;53.300;-6.260;2023-06-14T09:15:09;25.51;45.53
71942;DHT22;59997;53.300;-6.260;2023-06-14T09:17:36;25.20;40.94
71942;DHT22;59997;53.300;-6.260;2023-06-14T09:20:06;24.87;39.71
71942;DHT22;59997;53.300;-6.260;2023-06-14T09:22:32;24.97;39.92
71942;DHT22;59997;53.300;-6.260;2023-06-14T09:24:58;24.73;36.26
71942;DHT22;59997;53.300;-6.260;2023-06-14T09:27:27;24.99;38.60
71942;DHT22;59997;53.300;-6.260;2023-06-14T09:29:53;25.28;41.41
71942;DHT22;59997;53.300;-6.260;2023-06-14T09:32:21;25.25;39.32
71942;DHT22;59997;53.300;-6.260;2023-06-14T09:34:47;25.02;39.59
71942;DHT22;59997;53.300;-6.260;2023-06-14T09:37:12;24.71;39.09
71942;DHT22;59997;53.300;-6.260;2023-06-14T09:39:51;25.06;39.32
71942;DHT22;59997;53.300;-6.260;2023-06-14T09:42:18;24.93;40.80
71942;DHT22;59997;53.300;-6.260;2023-06-14T09:44:47;24.73;41.88
71942;DHT22;59997;53.300;-6.260;2023-06-14T09:47:14;24.83;43.50
71942;DHT22;59997;53.300;-6.260;2023-06-14T09:49:40;24.76;41.01
71942;DHT22;59997;53.300;-6.260;2023-06-14T09:52:06;24.65;42.99
71942;DHT22;59997;53.300;-6.260;2023-06-14T09:54:35;24.76;44.90
71942;DHT22;59997;53.300;-6.260;2023-06-14T09:57:05;24.44;45.82
71942;DHT22;59997;53.300;-6.260;2023-06-14T09:59:32;24.31;47.48
71942;DHT22;59997;53.300;-6.260;2023-06-14T10:01:58;24.56;49.62
71942;DHT22;59997;53.300;-6.260;2023-06-14T10:04:27;24.77;45.64
71942;DHT22;59997;53.300;-6.260;2023-06-14T10:06:54;24.27;46.55
71942;DHT22;59997;53.300;-6.260;2023-06-14T10:09:20;24.03;46.24
71942;DHT22;59997;53.300;-6.260;2023-06-14T10:11:47;24.06;48.35
71942;DHT22;59997;53.300;-6.260;2023-06-14T10:14:13;23.85;47.83
71942;DHT22;59997;53.300;-6.260;2023-06-14T10:16:45;23.99;48.07
71942;DHT22;59997;53.300;-6.260;2023-06-14T10:19:27;24.38;49.49
71942;DHT22;59997;53.300;-6.260;2023-06-14T10:22:16;24.04;48.33
71942;DHT22;59997;53.300;-6.260;2023-06-14T10:24:44;24.00;50.18
71942;DHT22;59997;53.300;-6.260;2023-06-14T10:27:13;24.56;51.19
71942;DHT22;59997;53.300;-6.260;2023-06-14T10:32:23;25.06;49.90
71942;DHT22;59997;53.300;-6.260;2023-06-14T10:34:57;24.75;50.25
71942;DHT22;59997;53.300;-6.260;2023-06-14T10:37:23;23.90;49.48
71942;DHT22;59997;53.300;-6.260;2023-06-14T10:39:50;23.62;49.37
71942;DHT22;59997;53.300;-6.260;2023-06-14T10:42:15;23.41;50.83
71942;DHT22;59997;53.300;-6.260;2023-06-14T10:44:54;23.38;51.84
71942;DHT22;59997;53.300;-6.260;2023-06-14T10:47:30;23.59;55.15
71942;DHT22;59997;53.300;-6.260;2023-06-14T10:50:09;24.07;49.03
71942;DHT22;59997;53.300;-6.260;2023-06-14T10:52:40;23.78;49.92
71942;DHT22;59997;53.300;-6.260;2023-06-14T10:57:42;23.99;51.59
71942;DHT22;59997;53.300;-6.260;2023-06-14T11:00:10;23.93;53.48
71942;DHT22;59997;53.300;-6.260;2023-06-14T11:05:14;24.21;52.40
71942;DHT22;59997;53.300;-6.260;2023-06-14T11:13:01;24.25;49.83
71942;DHT22;59997;53.300;-6.260;2023-06-14T11:15:34;23.71;52.46
71942;DHT22;59997;53.300;-6.260;2023-06-14T11:18:06;23.34;50.86
71942;DHT22;59997;53.300;-6.260;2023-06-14T11:20:34;23.02;51.47
71942;DHT22;59997;53.300;-6.260;2023-06-14T11:23:01;23.20;56.11
71942;DHT22;59997;53.300;-6.260;2023-06-14T11:25:27;23.23;56.48
71942;DHT22;59997;53.300;-6.260;2023-06-14T11:27:55;22.98;52.34
71942;DHT22;59997;53.300;-6.260;2023-06-14T11:30:21;22.99;56.70
71942;DHT22;59997;53.300;-6.260;2023-06-14T11:32:51;23.21;51.35
71942;DHT22;59997;53.300;-6.260;2023-06-14T11:35:18;23.52;53.91
71942;DHT22;59997;53.300;-6.260;2023-06-14T11:37:44;23.36;51.79
71942;DHT22;59997;53.300;-6.260;2023-06-14T11:40:11;23.03;53.85
71942;DHT22;59997;53.300;-6.260;2023-06-14T11:42:38;23.50;57.97
71942;DHT22;59997;53.300;-6.260;2023-06-14T11:45:08;23.66;52.95
71942;DHT22;59997;53.300;-6.260;2023-06-14T11:47:35;23.92;55.92
71942;DHT22;59997;53.300;-6.260;2023-06-14T11:50:07;23.76;52.15
71942;DHT22;59997;53.300;-6.260;2023-06-14T11:52:34;23.66;51.54
71942;DHT22;59997;53.300;-6.260;2023-06-14T11:54:59;23.72;52.14
71942;DHT22;59997;53.300;-6.260;2023-06-14T11:57:25;23.06;54.22
71942;DHT22;59997;53.300;-6.260;2023-06-14T11:59:51;23.10;53.32
71942;DHT22;59997;53.300;-6.260;2023-06-14T12:02:18;22.95;54.79
71942;DHT22;59997;53.300;-6.260;2023-06-14T12:04:46;22.79;54.92
71942;DHT22;59997;53.300;-6.260;2023-06-14T12:07:13;22.75;56.74
71942;DHT22;59997;53.300;-6.260;2023-06-14T12:12:28;22.65;55.89
71942;DHT22;59997;53.300;-6.260;2023-06-14T12:14:56;22.84;54.55
71942;DHT22;59997;53.300;-6.260;2023-06-14T12:17:22;22.99;59.49
71942;DHT22;59997;53.300;-6.260;2023-06-14T12:19:49;23.09;55.41
71942;DHT22;59997;53.300;-6.260;2023-06-14T12:22:16;23.28;57.83
71942;DHT22;59997;53.300;-6.260;2023-06-14T12:24:45;23.00;58.59
71942;DHT22;59997;53.300;-6.260;2023-06-14T12:27:12;23.03;56.78
71942;DHT22;59997;53.300;-6.260;2023-06-14T12:29:41;22.73;59.49
71942;DHT22;59997;53.300;-6.260;2023-06-14T12:32:06;23.38;61.65
71942;DHT22;59997;53.300;-6.260;2023-06-14T12:34:32;23.86;56.64
71942;DHT22;59997;53.300;-6.260;2023-06-14T12:36:58;23.71;56.81
71942;DHT22;59997;53.300;-6.260;2023-06-14T12:39:23;23.43;53.87
71942;DHT22;59997;53.300;-6.260;2023-06-14T12:41:50;22.89;56.01
71942;DHT22;59997;53.300;-6.260;2023-06-14T12:44:15;22.85;60.80
71942;DHT22;59997;53.300;-6.260;2023-06-14T12:46:44;22.93;61.59
71942;DHT22;59997;53.300;-6.260;2023-06-14T12:49:11;23.06;54.40
71942;DHT22;59997;53.300;-6.260;2023-06-14T12:51:37;23.23;60.63
71942;DHT22;59997;53.300;-6.260;2023-06-14T12:54:03;23.20;54.06
71942;DHT22;59997;53.300;-6.260;2023-06-14T12:56:29;22.78;56.72
71942;DHT22;59997;53.300;-6.260;2023-06-14T12:58:54;22.78;56.15
71942;DHT22;59997;53.300;-6.260;2023-06-14T13:01:20;23.11;59.52
71942;DHT22;59997;53.300;-6.260;2023-06-14T13:03:49;23.23;58.35
71942;DHT22;59997;53.300;-6.260;2023-06-14T13:06:17;23.47;59.61
71942;DHT22;59997;53.300;-6.260;2023-06-14T13:08:42;23.58;57.13
71942;DHT22;59997;53.300;-6.260;2023-06-14T13:11:08;23.34;58.77
71942;DHT22;59997;53.300;-6.260;2023-06-14T13:13:34;23.55;58.81
71942;DHT22;59997;53.300;-6.260;2023-06-14T13:15:59;23.87;55.95
71942;DHT22;59997;53.300;-6.260;2023-06-14T13:18:25;23.79;54.61
71942;DHT22;59997;53.300;-6.260;2023-06-14T13:20:51;22.88;53.74
71942;DHT22;59997;53.300;-6.260;2023-06-14T13:23:17;22.89;58.21
71942;DHT22;59997;53.300;-6.260;2023-06-14T13:25:43;23.37;55.87
71942;DHT22;59997;53.300;-6.260;2023-06-14T13:28:08;23.27;52.55
71942;DHT22;59997;53.300;-6.260;2023-06-14T13:30:34;23.28;55.93
71942;DHT22;59997;53.300;-6.260;2023-06-14T13:33:00;23.41;52.90
71942;DHT22;59997;53.300;-6.260;2023-06-14T13:35:27;23.65;56.84
71942;DHT22;59997;53.300;-6.260;2023-06-14T13:37:52;23.86;55.65
71942;DHT22;59997;53.300;-6.260;2023-06-14T13:40:18;23.58;52.32
71942;DHT22;59997;53.300;-6.260;2023-06-14T13:42:44;23.63;57.31
71942;DHT22;59997;53.300;-6.260;2023-06-14T13:45:10;23.54;58.95
71942;DHT22;59997;53.300;-6.260;2023-06-14T13:47:36;23.58;55.25
71942;DHT22;59997;53.300;-6.260;2023-06-14T13:50:02;23.68;58.69
71942;DHT22;59997;53.300;-6.260;2023-06-14T13:52:28;23.02;54.44
71942;DHT22;59997;53.300;-6.260;2023-06-14T13:54:53;23.03;55.12
71942;DHT22;59997;53.300;-6.260;2023-06-14T13:57:19;22.99;56.67
71942;DHT22;59997;53.300;-6.260;2023-06-14T13:59:45;23.41;54.12
71942;DHT22;59997;53.300;-6.260;2023-06-14T14:02:11;23.66;55.34
71942;DHT22;59997;53.300;-6.260;2023-06-14T14:04:37;23.34;50.61
71942;DHT22;59997;53.300;-6.260;2023-06-14T14:07:04;23.23;50.02
71942;DHT22;59997;53.300;-6.260;2023-06-14T14:09:29;23.23;55.62
71942;DHT22;59997;53.300;-6.260;2023-06-14T14:11:56;23.13;56.72
71942;DHT22;59997;53.300;-6.260;2023-06-14T14:14:22;23.33;55.18
71942;DHT22;59997;53.300;-6.260;2023-06-14T14:16:49;23.50;56.09
71942;DHT22;59997;53.300;-6.260;2023-06-14T14:19:17;23.86;53.26
71942;DHT22;59997;53.300;-6.260;2023-06-14T14:21:44;23.69;48.18
71942;DHT22;59997;53.300;-6.260;2023-06-14T14:24:09;23.43;48.10
71942;DHT22;59997;53.300;-6.260;2023-06-14T14:26:35;23.76;54.46
71942;DHT22;59997;53.300;-6.260;2023-06-14T14:29:00;23.87;53.78
71942;DHT22;59997;53.300;-6.260;2023-06-14T14:31:27;23.87;49.41
71942;DHT22;59997;53.300;-6.260;2023-06-14T14:33:53;23.97;54.30
71942;DHT22;59997;53.300;-6.260;2023-06-14T14:36:18;23.95;50.41
71942;DHT22;59997;53.300;-6.260;2023-06-14T14:38:44;23.85;49.62
71942;DHT22;59997;53.300;-6.260;2023-06-14T14:41:10;24.09;56.35
71942;DHT22;59997;53.300;-6.260;2023-06-14T14:43:35;24.23;51.01
71942;DHT22;59997;53.300;-6.260;2023-06-14T14:46:01;24.04;51.27
71942;DHT22;59997;53.300;-6.260;2023-06-14T14:48:26;24.03;50.71
71942;DHT22;59997;53.300;-6.260;2023-06-14T14:50:52;23.95;50.22
71942;DHT22;59997;53.300;-6.260;2023-06-14T14:53:17;23.63;50.99
71942;DHT22;59997;53.300;-6.260;2023-06-14T14:55:43;23.65;49.33
71942;DHT22;59997;53.300;-6.260;2023-06-14T14:58:09;23.52;48.42
71942;DHT22;59997;53.300;-6.260;2023-06-14T15:00:35;23.90;55.60
71942;DHT22;59997;53.300;-6.260;2023-06-14T15:03:00;24.00;51.38
71942;DHT22;59997;53.300;-6.260;2023-06-14T15:05:26;23.96;45.93
71942;DHT22;59997;53.300;-6.260;2023-06-14T15:07:52;23.90;48.81
71942;DHT22;59997;53.300;-6.260;2023-06-14T15:10:17;24.16;48.42
71942;DHT22;59997;53.300;-6.260;2023-06-14T15:12:43;23.93;44.90
71942;DHT22;59997;53.300;-6.260;2023-06-14T15:15:09;23.72;46.79
71942;DHT22;59997;53.300;-6.260;2023-06-14T15:17:35;23.73;45.77
71942;DHT22;59997;53.300;-6.260;2023-06-14T15:20:00;23.85;48.48
71942;DHT22;59997;53.300;-6.260;2023-06-14T15:22:26;23.93;48.98
71942;DHT22;59997;53.300;-6.260;2023-06-14T15:24:52;24.42;49.85
71942;DHT22;59997;53.300;-6.260;2023-06-14T15:27:17;24.54;45.73
71942;DHT22;59997;53.300;-6.260;2023-06-14T15:29:43;24.38;48.83
71942;DHT22;59997;53.300;-6.260;2023-06-14T15:32:09;24.34;52.84
71942;DHT22;59997;53.300;-6.260;2023-06-14T15:34:35;24.66;48.27